Rochester, Texas
Current Conditions -  °F | °C
As of 7:58 AM on Thursday 27 Nov 2014 (Local Time) from KDYS Reporting Station
Clear Clear  
Wind Chill: 33°   Ceiling: Unl
Heat Index: 33°   Visibility: 10mi
Dew Point: 28°   Wind: 3mph
Humidity: 83%   Direction: 210°SSW
Pressure: 30.5"   Gusts: NA
Location:  33.32°N, 99.86°W
Report Text: KDYS 271358Z AUTO 21003KT 10SM CLR 00/M02 A3050 RMK AO2 SLP335 T00041021 $
Loading
Personal Weather Stations






























Interactive Weather Map New forecast layout! Learn more

10-Day Weather Forecast

Advertisements
Track Severe Weather on mobile